createdAt,value
2018-06-21T00:00:12.667Z,16.30
2018-06-21T00:02:42.160Z,16.20
2018-06-21T00:05:11.447Z,16.20
2018-06-21T00:07:40.546Z,16.20
2018-06-21T00:10:09.676Z,16.20
2018-06-21T00:12:38.837Z,16.20
2018-06-21T00:15:07.890Z,16.20
2018-06-21T00:17:37.040Z,16.10
2018-06-21T00:20:06.104Z,16.10
2018-06-21T00:22:35.200Z,16.10
2018-06-21T00:25:04.349Z,16.10
2018-06-21T00:27:33.485Z,16.00
2018-06-21T00:30:02.687Z,16.00
2018-06-21T00:32:31.747Z,16.00
2018-06-21T00:35:00.860Z,16.00
2018-06-21T00:37:29.979Z,16.00
2018-06-21T00:39:59.024Z,16.00
2018-06-21T00:42:28.128Z,16.00
2018-06-21T00:44:57.188Z,16.00
2018-06-21T00:47:26.282Z,16.00
2018-06-21T00:49:55.379Z,15.90
2018-06-21T00:52:24.523Z,15.90
2018-06-21T00:54:53.583Z,15.90
2018-06-21T00:57:22.697Z,15.90
2018-06-21T00:59:51.879Z,15.90
2018-06-21T01:02:20.982Z,15.90
2018-06-21T01:04:50.053Z,15.90
2018-06-21T01:07:19.131Z,15.90
2018-06-21T01:09:48.263Z,15.90
2018-06-21T01:12:23.328Z,15.90
2018-06-21T01:14:54.209Z,15.90
2018-06-21T01:17:23.381Z,15.80
2018-06-21T01:19:52.521Z,15.80
2018-06-21T01:22:21.590Z,15.80
2018-06-21T01:24:50.714Z,15.80
2018-06-21T01:27:19.756Z,15.80
2018-06-21T01:29:48.872Z,15.70
2018-06-21T01:32:18.380Z,15.70
2018-06-21T01:34:47.545Z,15.70
2018-06-21T01:37:16.672Z,15.70
2018-06-21T01:39:45.785Z,15.60
2018-06-21T01:42:14.832Z,15.70
2018-06-21T01:44:43.906Z,15.80
2018-06-21T01:47:12.985Z,15.80
2018-06-21T01:49:42.058Z,15.70
2018-06-21T01:52:11.119Z,15.70
2018-06-21T01:54:40.241Z,15.60
2018-06-21T01:57:09.352Z,15.60
2018-06-21T01:59:38.453Z,15.60
2018-06-21T02:02:07.525Z,15.50
2018-06-21T02:04:36.611Z,15.50
2018-06-21T02:07:05.641Z,15.50
2018-06-21T02:09:34.707Z,15.50
2018-06-21T02:12:03.758Z,15.50
2018-06-21T02:14:32.843Z,15.50
2018-06-21T02:17:01.896Z,15.50
2018-06-21T02:19:31.038Z,15.40
2018-06-21T02:22:00.072Z,15.40
2018-06-21T02:24:29.197Z,15.40
2018-06-21T02:26:58.333Z,15.30
2018-06-21T02:29:27.444Z,15.30
2018-06-21T02:31:56.633Z,15.30
2018-06-21T02:34:25.772Z,15.30
2018-06-21T02:36:54.837Z,15.30
2018-06-21T02:39:23.926Z,15.30
2018-06-21T02:41:52.971Z,15.30
2018-06-21T02:44:22.023Z,15.30
2018-06-21T02:46:51.080Z,15.30
2018-06-21T02:49:20.254Z,15.30
2018-06-21T02:51:49.325Z,15.30
2018-06-21T02:56:47.057Z,15.30
2018-06-21T02:59:16.141Z,15.30
2018-06-21T03:01:45.165Z,15.30
2018-06-21T03:04:14.211Z,15.30
2018-06-21T03:06:43.256Z,15.40
2018-06-21T03:09:12.300Z,15.40
2018-06-21T03:11:41.353Z,15.40
2018-06-21T03:14:10.440Z,15.40
2018-06-21T03:16:39.493Z,15.30
2018-06-21T03:19:08.651Z,15.40
2018-06-21T03:21:37.726Z,15.40
2018-06-21T03:24:06.804Z,15.50
2018-06-21T03:26:35.818Z,15.50
2018-06-21T03:29:04.922Z,15.60
2018-06-21T03:31:33.963Z,15.60
2018-06-21T03:34:03.100Z,15.60
2018-06-21T03:36:32.580Z,15.60
2018-06-21T03:39:01.623Z,15.60
2018-06-21T03:41:30.654Z,15.70
2018-06-21T03:43:59.772Z,15.70
2018-06-21T03:46:28.767Z,15.80
2018-06-21T03:48:57.799Z,15.80
2018-06-21T03:51:26.834Z,15.80
2018-06-21T03:53:55.884Z,15.90
2018-06-21T03:56:24.891Z,15.90
2018-06-21T03:58:53.928Z,15.90
2018-06-21T04:01:22.983Z,15.90
2018-06-21T04:03:51.994Z,16.00
2018-06-21T04:06:21.028Z,16.00
2018-06-21T04:08:50.054Z,16.00
2018-06-21T04:11:19.083Z,16.00
2018-06-21T04:13:48.096Z,16.00
2018-06-21T04:16:17.171Z,16.00
2018-06-21T04:18:46.238Z,16.00
2018-06-21T04:21:15.281Z,16.10
2018-06-21T04:23:44.791Z,16.20
2018-06-21T04:26:13.997Z,16.30
2018-06-21T04:28:43.176Z,16.40
2018-06-21T04:31:12.323Z,16.50
2018-06-21T04:33:41.354Z,16.70
2018-06-21T04:36:10.466Z,16.80
2018-06-21T04:38:39.516Z,16.90
2018-06-21T04:41:08.635Z,17.00
2018-06-21T04:43:37.691Z,17.10
2018-06-21T04:46:06.979Z,17.20
2018-06-21T04:48:35.998Z,17.30
2018-06-21T04:51:05.010Z,17.60
2018-06-21T04:53:34.067Z,17.70
2018-06-21T04:56:03.110Z,17.90
2018-06-21T04:58:32.259Z,18.10
2018-06-21T05:01:01.412Z,18.20
2018-06-21T05:03:30.496Z,18.30
2018-06-21T05:05:59.538Z,18.40
2018-06-21T05:08:28.626Z,18.60
2018-06-21T05:10:58.147Z,18.70
2018-06-21T05:13:27.678Z,18.90
2018-06-21T05:15:56.909Z,19.10
2018-06-21T05:18:26.119Z,19.30
2018-06-21T05:20:55.423Z,19.50
2018-06-21T05:23:24.809Z,19.90
2018-06-21T05:25:54.151Z,20.20
2018-06-21T05:28:23.342Z,20.50
2018-06-21T05:33:21.110Z,21.20
2018-06-21T05:35:50.622Z,21.50
2018-06-21T05:38:19.700Z,21.70
2018-06-21T05:40:48.738Z,22.10
2018-06-21T05:43:17.709Z,22.30
2018-06-21T05:48:15.629Z,22.50
2018-06-21T05:50:44.646Z,22.70
2018-06-21T05:53:13.690Z,22.70
2018-06-21T05:55:42.766Z,23.00
2018-06-21T05:58:11.798Z,23.20
2018-06-21T06:00:40.944Z,23.40
2018-06-21T06:03:10.152Z,23.80
2018-06-21T06:05:39.943Z,24.00
2018-06-21T06:08:09.178Z,24.00
2018-06-21T06:10:38.292Z,24.20
2018-06-21T06:13:07.545Z,24.20
2018-06-21T06:15:36.657Z,24.40
2018-06-21T06:18:05.776Z,24.60
2018-06-21T06:20:34.850Z,24.80
2018-06-21T06:23:03.954Z,24.90
2018-06-21T06:25:33.015Z,25.00
2018-06-21T06:28:02.067Z,25.20
2018-06-21T06:30:31.120Z,25.20
2018-06-21T06:33:00.186Z,25.50
2018-06-21T06:35:30.996Z,25.60
2018-06-21T06:38:01.260Z,25.70
2018-06-21T06:42:59.051Z,25.60
2018-06-21T06:45:28.325Z,25.60
2018-06-21T06:47:57.535Z,25.70
2018-06-21T06:50:26.630Z,25.90
2018-06-21T06:52:55.648Z,26.10
2018-06-21T06:55:25.097Z,26.20
2018-06-21T06:57:54.126Z,26.50
2018-06-21T07:00:23.297Z,26.70
2018-06-21T07:05:20.914Z,26.90
2018-06-21T07:07:49.975Z,26.90
2018-06-21T07:10:19.022Z,27.10
2018-06-21T07:12:48.135Z,27.20
2018-06-21T07:15:17.164Z,27.30
2018-06-21T07:17:46.283Z,27.40
2018-06-21T07:20:15.338Z,27.30
2018-06-21T07:22:44.347Z,27.00
2018-06-21T07:25:13.372Z,26.80
2018-06-21T07:27:42.418Z,26.60
2018-06-21T07:30:11.513Z,26.80
2018-06-21T07:35:09.179Z,26.80
2018-06-21T07:37:38.215Z,26.70
2018-06-21T07:40:07.242Z,26.90
2018-06-21T07:42:36.295Z,27.20
2018-06-21T07:45:05.490Z,27.40
2018-06-21T07:47:34.519Z,27.60
2018-06-21T07:50:03.587Z,27.80
2018-06-21T07:52:32.603Z,27.90
2018-06-21T07:55:01.639Z,28.00
2018-06-21T07:57:30.723Z,27.90
2018-06-21T08:02:28.313Z,27.90
2018-06-21T08:04:57.483Z,28.00
2018-06-21T08:07:26.578Z,28.00
2018-06-21T08:09:55.609Z,28.10
2018-06-21T08:12:24.612Z,28.20
2018-06-21T08:14:53.749Z,28.20
2018-06-21T08:17:22.795Z,28.30
2018-06-21T08:19:51.827Z,28.40
2018-06-21T08:22:20.850Z,28.60
2018-06-21T08:27:18.468Z,28.80
2018-06-21T08:29:47.479Z,28.90
2018-06-21T08:32:16.590Z,28.70
2018-06-21T08:34:45.826Z,28.50
2018-06-21T08:37:14.839Z,28.50
2018-06-21T08:39:44.042Z,28.30
2018-06-21T08:42:13.084Z,28.10
2018-06-21T08:44:43.327Z,27.80
2018-06-21T08:47:12.419Z,27.40
2018-06-21T08:49:41.439Z,27.20
2018-06-21T08:52:10.503Z,27.10
2018-06-21T08:54:40.097Z,27.10
2018-06-21T08:57:09.207Z,27.00
2018-06-21T08:59:38.300Z,26.90
2018-06-21T09:02:07.390Z,26.80
2018-06-21T09:04:36.398Z,27.00
2018-06-21T09:07:05.585Z,27.40
2018-06-21T09:09:34.666Z,27.80
2018-06-21T09:12:03.724Z,28.10
2018-06-21T09:14:32.742Z,27.90
2018-06-21T09:17:01.806Z,27.70
2018-06-21T09:19:30.827Z,27.30
2018-06-21T09:22:00.989Z,27.20
2018-06-21T09:24:30.445Z,27.60
2018-06-21T09:27:00.246Z,28.20
2018-06-21T09:29:29.987Z,28.50
2018-06-21T09:31:59.470Z,28.40
2018-06-21T09:34:29.092Z,28.00
2018-06-21T09:36:58.751Z,27.80
2018-06-21T09:39:33.463Z,27.70
2018-06-21T09:42:09.487Z,27.80
2018-06-21T09:44:43.134Z,27.70
2018-06-21T09:49:47.061Z,28.00
2018-06-21T09:52:16.692Z,28.30
2018-06-21T09:54:46.219Z,28.60
2018-06-21T09:57:15.878Z,28.70
2018-06-21T09:59:45.460Z,28.70
2018-06-21T10:02:15.018Z,28.80
2018-06-21T10:04:44.532Z,28.50
2018-06-21T10:07:13.745Z,28.20
2018-06-21T10:09:43.436Z,28.00
2018-06-21T10:12:13.269Z,28.10
2018-06-21T10:14:42.924Z,28.10
2018-06-21T10:17:12.653Z,28.30
2018-06-21T10:19:42.378Z,28.60
2018-06-21T10:22:13.687Z,28.60
2018-06-21T10:24:43.647Z,28.60
2018-06-21T10:27:19.562Z,28.60
2018-06-21T10:29:51.428Z,28.60
2018-06-21T10:35:03.056Z,28.50
2018-06-21T10:37:48.051Z,28.50
2018-06-21T10:40:36.299Z,28.40
2018-06-21T10:43:05.659Z,28.60
2018-06-21T10:45:34.770Z,28.90
2018-06-21T10:48:03.889Z,29.00
2018-06-21T10:50:32.991Z,29.10
2018-06-21T10:53:02.150Z,29.30
2018-06-21T10:55:31.378Z,29.30
2018-06-21T10:58:00.506Z,29.00
2018-06-21T11:00:29.931Z,29.10
2018-06-21T11:02:59.129Z,29.10
2018-06-21T11:05:28.693Z,29.20
2018-06-21T11:07:58.022Z,29.30
2018-06-21T11:10:27.326Z,29.10
2018-06-21T11:12:56.904Z,29.20
2018-06-21T11:15:26.713Z,29.30
2018-06-21T11:17:55.987Z,29.30
2018-06-21T11:20:25.951Z,29.20
2018-06-21T11:22:55.088Z,29.20
2018-06-21T11:25:24.221Z,29.10
2018-06-21T11:27:53.506Z,29.10
2018-06-21T11:30:22.785Z,28.90
2018-06-21T11:32:51.916Z,28.90
2018-06-21T11:35:21.327Z,28.90
2018-06-21T11:37:50.452Z,29.00
2018-06-21T11:40:22.048Z,29.20
2018-06-21T11:42:52.981Z,29.20
2018-06-21T11:45:23.900Z,29.00
2018-06-21T11:47:53.646Z,28.90
2018-06-21T11:50:23.213Z,28.90
2018-06-21T11:52:53.621Z,29.00
2018-06-21T11:55:23.731Z,29.10
2018-06-21T11:57:53.260Z,29.10
2018-06-21T12:00:22.526Z,29.20
2018-06-21T12:02:52.203Z,29.40
2018-06-21T12:05:22.487Z,29.30
2018-06-21T12:07:54.119Z,28.80
2018-06-21T12:10:23.552Z,28.10
2018-06-21T12:15:46.405Z,27.40
2018-06-21T12:18:17.179Z,27.20
2018-06-21T12:20:55.796Z,27.20
2018-06-21T12:23:28.348Z,27.20
2018-06-21T12:25:59.346Z,27.30
2018-06-21T12:28:30.269Z,27.40
2018-06-21T12:31:01.316Z,27.20
2018-06-21T12:33:31.238Z,27.10
2018-06-21T12:36:00.395Z,27.00
2018-06-21T12:38:29.498Z,26.90
2018-06-21T12:40:58.522Z,26.70
2018-06-21T12:43:27.574Z,26.50
2018-06-21T12:45:56.613Z,26.40
2018-06-21T12:48:25.667Z,26.30
2018-06-21T12:50:54.702Z,26.30
2018-06-21T12:53:23.727Z,26.30
2018-06-21T12:58:21.316Z,26.50
2018-06-21T13:00:50.344Z,26.60
2018-06-21T13:03:19.408Z,26.50
2018-06-21T13:05:48.463Z,26.60
2018-06-21T13:08:28.649Z,26.80
2018-06-21T13:11:15.663Z,26.90
2018-06-21T13:13:44.962Z,26.90
2018-06-21T13:18:46.832Z,27.30
2018-06-21T13:21:16.369Z,27.30
2018-06-21T13:23:45.736Z,27.30
2018-06-21T13:26:15.047Z,27.20
2018-06-21T13:28:44.158Z,27.20
2018-06-21T13:31:13.246Z,27.10
2018-06-21T13:33:42.274Z,27.10
2018-06-21T13:36:11.371Z,27.10
2018-06-21T13:38:40.402Z,27.10
2018-06-21T13:41:09.467Z,27.00
2018-06-21T13:43:38.488Z,26.90
2018-06-21T13:46:07.514Z,26.80
2018-06-21T13:48:36.721Z,26.50
2018-06-21T13:51:05.794Z,26.20
2018-06-21T13:53:34.872Z,25.80
2018-06-21T13:56:03.907Z,24.70
2018-06-21T13:58:32.966Z,23.40
2018-06-21T14:01:01.954Z,22.40
2018-06-21T14:03:31.015Z,21.70
2018-06-21T14:08:28.704Z,21.00
2018-06-21T14:10:57.735Z,20.90
2018-06-21T14:13:27.354Z,20.80
2018-06-21T14:15:56.529Z,20.80
2018-06-21T14:18:25.598Z,20.90
2018-06-21T14:20:54.664Z,21.00
2018-06-21T14:23:23.723Z,21.10
2018-06-21T14:25:52.930Z,21.30
2018-06-21T14:28:22.166Z,21.60
2018-06-21T14:30:51.375Z,22.00
2018-06-21T14:33:21.005Z,22.40
2018-06-21T14:35:50.333Z,22.90
2018-06-21T14:38:20.023Z,23.50
2018-06-21T14:40:49.192Z,24.10
2018-06-21T14:43:18.412Z,24.50
2018-06-21T14:45:47.512Z,24.60
2018-06-21T14:48:16.691Z,24.40
2018-06-21T14:50:47.166Z,24.30
2018-06-21T14:53:16.449Z,24.20
2018-06-21T14:55:45.598Z,24.20
2018-06-21T14:58:14.843Z,24.20
2018-06-21T15:00:44.049Z,24.20
2018-06-21T15:03:13.438Z,24.20
2018-06-21T15:05:42.584Z,24.30
2018-06-21T15:08:11.718Z,24.30
2018-06-21T15:10:40.858Z,24.40
2018-06-21T15:13:10.049Z,24.30
2018-06-21T15:15:39.188Z,24.30
2018-06-21T15:18:08.223Z,24.20
2018-06-21T15:20:37.644Z,24.10
2018-06-21T15:23:07.249Z,24.00
2018-06-21T15:25:36.496Z,24.00
2018-06-21T15:28:05.707Z,24.00
2018-06-21T15:30:34.920Z,23.90
2018-06-21T15:33:04.157Z,24.00
2018-06-21T15:35:33.328Z,24.00
2018-06-21T15:38:02.619Z,24.00
2018-06-21T15:40:31.833Z,24.10
2018-06-21T15:43:00.941Z,24.10
2018-06-21T15:45:30.124Z,24.20
2018-06-21T15:47:59.257Z,24.10
2018-06-21T15:50:28.286Z,24.00
2018-06-21T15:52:57.407Z,24.00
2018-06-21T15:55:26.788Z,24.00
2018-06-21T15:57:56.015Z,23.90
2018-06-21T16:00:25.346Z,23.90
2018-06-21T16:02:54.677Z,23.80
2018-06-21T16:05:23.847Z,23.70
2018-06-21T16:07:52.897Z,23.70
2018-06-21T16:10:21.896Z,23.60
2018-06-21T16:12:50.959Z,23.50
2018-06-21T16:15:20.054Z,23.50
2018-06-21T16:17:49.095Z,23.50
2018-06-21T16:20:18.135Z,23.50
2018-06-21T16:22:47.174Z,23.50
2018-06-21T16:25:16.244Z,23.50
2018-06-21T16:27:45.273Z,23.50
2018-06-21T16:30:14.304Z,23.50
2018-06-21T16:32:43.314Z,23.50
2018-06-21T16:35:12.293Z,23.50
2018-06-21T16:37:41.347Z,23.50
2018-06-21T16:40:10.379Z,23.50
2018-06-21T16:42:39.500Z,23.50
2018-06-21T16:45:08.571Z,23.60
2018-06-21T16:47:37.707Z,23.50
2018-06-21T16:50:06.811Z,23.50
2018-06-21T16:52:35.876Z,23.50
2018-06-21T16:55:04.978Z,23.40
2018-06-21T16:57:34.019Z,23.30
2018-06-21T17:00:03.123Z,23.30
2018-06-21T17:02:32.300Z,23.30
2018-06-21T17:05:01.345Z,23.20
2018-06-21T17:07:30.367Z,23.20
2018-06-21T17:09:59.401Z,23.20
2018-06-21T17:12:28.866Z,23.30
2018-06-21T17:14:57.965Z,23.30
2018-06-21T17:17:27.041Z,23.30
2018-06-21T17:19:56.149Z,23.30
2018-06-21T17:22:25.205Z,23.30
2018-06-21T17:24:54.267Z,23.30
2018-06-21T17:27:23.989Z,23.30
2018-06-21T17:29:53.293Z,23.20
2018-06-21T17:32:23.144Z,23.10
2018-06-21T17:34:52.879Z,23.10
2018-06-21T17:37:22.366Z,23.10
2018-06-21T17:39:51.402Z,23.10
2018-06-21T17:42:20.527Z,23.10
2018-06-21T17:44:49.868Z,23.10
2018-06-21T17:49:47.508Z,23.00
2018-06-21T17:52:16.533Z,23.00
2018-06-21T17:57:14.883Z,22.90
2018-06-21T18:02:12.689Z,23.00
2018-06-21T18:04:42.180Z,22.90
2018-06-21T18:07:11.577Z,22.90
2018-06-21T18:12:09.763Z,22.80
2018-06-21T18:14:39.028Z,22.80
2018-06-21T18:17:08.680Z,22.70
2018-06-21T18:19:38.026Z,22.60
2018-06-21T18:22:07.516Z,22.50
2018-06-21T18:24:36.796Z,22.40
2018-06-21T18:27:06.218Z,22.40
2018-06-21T18:29:35.596Z,22.30
2018-06-21T18:32:05.060Z,22.10
2018-06-21T18:34:34.558Z,22.10
2018-06-21T18:37:03.978Z,22.00
2018-06-21T18:39:33.288Z,22.00
2018-06-21T18:42:02.599Z,21.80
2018-06-21T18:44:31.980Z,21.60
2018-06-21T18:47:01.378Z,21.40
2018-06-21T18:49:30.876Z,21.30
2018-06-21T18:52:00.179Z,21.20
2018-06-21T18:54:29.595Z,21.10
2018-06-21T18:56:58.819Z,21.00
2018-06-21T18:59:28.144Z,20.90
2018-06-21T19:01:57.515Z,20.80
2018-06-21T19:04:26.831Z,20.80
2018-06-21T19:07:01.351Z,20.80
2018-06-21T19:09:35.783Z,20.60
2018-06-21T19:12:06.504Z,20.50
2018-06-21T19:14:35.831Z,20.40
2018-06-21T19:17:05.180Z,20.40
2018-06-21T19:19:34.547Z,20.30
2018-06-21T19:22:03.899Z,20.20
2018-06-21T19:24:33.172Z,20.20
2018-06-21T19:27:02.574Z,20.10
2018-06-21T19:29:31.851Z,20.10
2018-06-21T19:32:02.991Z,20.00
2018-06-21T19:34:32.402Z,20.00
2018-06-21T19:37:02.067Z,19.90
2018-06-21T19:39:31.579Z,19.90
2018-06-21T19:42:01.035Z,19.90
2018-06-21T19:44:30.535Z,19.80
2018-06-21T19:46:59.961Z,19.80
2018-06-21T19:49:29.432Z,19.70
2018-06-21T19:51:58.648Z,19.70
2018-06-21T19:54:29.192Z,19.70
2018-06-21T19:56:58.730Z,19.60
2018-06-21T19:59:28.137Z,19.60
2018-06-21T20:02:01.874Z,19.50
2018-06-21T20:04:33.997Z,19.50
2018-06-21T20:07:03.535Z,19.40
2018-06-21T20:09:33.645Z,19.40
2018-06-21T20:12:03.236Z,19.40
2018-06-21T20:14:33.788Z,19.40
2018-06-21T20:17:03.488Z,19.30
2018-06-21T20:19:38.385Z,19.30
2018-06-21T20:22:08.393Z,19.20
2018-06-21T20:24:37.506Z,19.10
2018-06-21T20:27:06.592Z,19.10
2018-06-21T20:29:35.622Z,19.00
2018-06-21T20:32:04.696Z,18.90
2018-06-21T20:34:33.714Z,18.90
2018-06-21T20:37:03.868Z,18.90
2018-06-21T20:39:32.947Z,18.80
2018-06-21T20:42:01.962Z,18.80
2018-06-21T20:44:31.012Z,18.70
2018-06-21T20:47:00.368Z,18.70
2018-06-21T20:49:29.470Z,18.70
2018-06-21T20:54:31.691Z,18.50
2018-06-21T20:57:02.293Z,18.50
2018-06-21T20:59:31.818Z,18.40
2018-06-21T21:02:01.177Z,18.40
2018-06-21T21:04:39.303Z,18.40
2018-06-21T21:07:08.623Z,18.40
2018-06-21T21:09:38.071Z,18.40
2018-06-21T21:12:07.714Z,18.40
2018-06-21T21:17:06.063Z,18.30
2018-06-21T21:19:36.214Z,18.30
2018-06-21T21:22:07.645Z,18.30
2018-06-21T21:24:37.282Z,18.30
2018-06-21T21:27:06.695Z,18.20
2018-06-21T21:29:36.321Z,18.20
2018-06-21T21:32:05.748Z,18.10
2018-06-21T21:34:35.297Z,18.10
2018-06-21T21:37:04.618Z,18.00
2018-06-21T21:39:34.400Z,17.90
2018-06-21T21:42:04.318Z,17.90
2018-06-21T21:44:33.994Z,17.90
2018-06-21T21:47:03.532Z,17.80
2018-06-21T21:49:33.091Z,17.80
2018-06-21T21:52:02.641Z,17.70
2018-06-21T21:54:31.838Z,17.70
2018-06-21T21:57:01.616Z,17.70
2018-06-21T21:59:30.638Z,17.60
2018-06-21T22:01:59.742Z,17.60
2018-06-21T22:04:28.748Z,17.60
2018-06-21T22:06:57.791Z,17.50
2018-06-21T22:09:26.852Z,17.50
2018-06-21T22:11:55.895Z,17.50
2018-06-21T22:14:24.927Z,17.40
2018-06-21T22:16:53.993Z,17.40
2018-06-21T22:19:23.421Z,17.40
2018-06-21T22:21:52.439Z,17.40
2018-06-21T22:24:21.466Z,17.30
2018-06-21T22:26:50.560Z,17.30
2018-06-21T22:29:19.541Z,17.30
2018-06-21T22:31:48.783Z,17.30
2018-06-21T22:34:17.805Z,17.20
2018-06-21T22:36:47.563Z,17.20
2018-06-21T22:39:16.587Z,17.20
2018-06-21T22:41:45.933Z,17.10
2018-06-21T22:44:14.923Z,17.10
2018-06-21T22:46:43.895Z,17.00
2018-06-21T22:49:12.905Z,16.90
2018-06-21T22:51:41.915Z,17.00
2018-06-21T22:54:10.892Z,16.90
2018-06-21T22:56:39.963Z,16.90
2018-06-21T22:59:08.946Z,16.90
2018-06-21T23:01:37.947Z,16.90
2018-06-21T23:04:06.960Z,16.80
2018-06-21T23:06:35.939Z,16.70
2018-06-21T23:09:06.807Z,16.70
2018-06-21T23:11:35.786Z,16.60
2018-06-21T23:14:04.823Z,16.60
2018-06-21T23:16:33.830Z,16.50
2018-06-21T23:19:13.808Z,16.50
2018-06-21T23:21:42.818Z,16.30
2018-06-21T23:24:11.799Z,16.20
2018-06-21T23:26:40.847Z,16.20
2018-06-21T23:29:09.818Z,16.10
2018-06-21T23:31:38.826Z,16.00
2018-06-21T23:34:07.804Z,16.00
2018-06-21T23:36:36.875Z,16.00
2018-06-21T23:39:08.816Z,15.90
2018-06-21T23:41:37.837Z,15.90
2018-06-21T23:44:06.818Z,15.90
2018-06-21T23:46:35.904Z,15.90
2018-06-21T23:49:04.929Z,15.90
2018-06-21T23:51:33.971Z,15.80
2018-06-21T23:56:31.548Z,15.70
2018-06-21T23:59:01.406Z,15.60
